Terminal Aerodrome Forecast
Issued by NWS

Home | Current Version | Previous Version | Text Only | Print | Product List | Glossary On
Versions: 1 2 3 4 5 6 7 8 9 10 11 12 13 14 15 16 17 18
000
FTUS41 KAKQ 301700
TAFPHF
TAF
KPHF 301731Z 3018/3118 02007KT P6SM SCT040
     FM302300 02003KT P6SM SCT250
     FM311400 04007KT P6SM SCT040 SCT250=

USA.gov is the U.S. government's official web portal to all federal, state and local government web resources and services.